Time;durP1;ratioP1;P1;durP2;ratioP2;P2;SDS_P1;SDS_P2;PMS_P1;PMS_P2;Temp;Humidity;BMP_temperature;BMP_pressure;BME280_temperature;BME280_humidity;BME280_pressure;Samples;Min_cycle;Max_cycle;Signal;HPM_P1;HPM_P2
2023/12/10 00:02:00;;;;;;;9.00;5.73;;;4.90;99.90;;;;;;5095826;28;20173;-51
2023/12/10 00:04:25;;;;;;;10.00;6.07;;;4.80;99.90;;;;;;5095295;28;20418;-51
2023/12/10 00:06:51;;;;;;;7.37;6.10;;;4.80;99.90;;;;;;5095567;28;20240;-50
2023/12/10 00:09:17;;;;;;;7.63;5.87;;;4.80;99.90;;;;;;5094947;28;20209;-50
2023/12/10 00:11:43;;;;;;;12.53;6.50;;;4.70;99.90;;;;;;5095462;28;20808;-51
2023/12/10 00:14:09;;;;;;;15.73;6.17;;;4.70;99.90;;;;;;5095490;28;20189;-51
2023/12/10 00:16:34;;;;;;;8.87;6.50;;;4.70;99.90;;;;;;5095361;28;20189;-51
2023/12/10 00:19:00;;;;;;;13.10;6.60;;;4.70;99.90;;;;;;5095691;28;20190;-51
2023/12/10 00:21:26;;;;;;;8.47;6.80;;;4.70;99.90;;;;;;5095202;28;20177;-51
2023/12/10 00:23:51;;;;;;;8.50;6.80;;;4.70;99.90;;;;;;5095306;28;20268;-50
2023/12/10 00:26:17;;;;;;;7.97;6.30;;;4.70;99.90;;;;;;5095102;28;20213;-50
2023/12/10 00:28:43;;;;;;;10.00;6.70;;;4.70;99.90;;;;;;5094991;28;20653;-51
2023/12/10 00:31:09;;;;;;;9.73;6.50;;;4.80;99.90;;;;;;5095132;28;20424;-50
2023/12/10 00:33:35;;;;;;;8.07;5.97;;;4.80;99.90;;;;;;5095050;28;20781;-51
2023/12/10 00:36:01;;;;;;;10.33;7.10;;;4.80;99.90;;;;;;5095117;28;20407;-50
2023/12/10 00:38:27;;;;;;;8.70;6.63;;;4.80;99.90;;;;;;5094937;28;20180;-51
2023/12/10 00:40:52;;;;;;;9.43;6.37;;;4.80;99.90;;;;;;5094904;28;20181;-50
2023/12/10 00:43:18;;;;;;;8.77;6.30;;;4.80;99.90;;;;;;5094526;28;20178;-50
2023/12/10 00:45:44;;;;;;;7.37;6.40;;;4.80;99.90;;;;;;5094660;28;20209;-51
2023/12/10 00:48:12;;;;;;;10.30;7.10;;;4.80;99.90;;;;;;5094203;28;20273;-51
2023/12/10 00:50:38;;;;;;;9.23;6.63;;;4.80;99.90;;;;;;5094763;28;20620;-51
2023/12/10 00:53:03;;;;;;;8.10;6.67;;;5.00;99.90;;;;;;5094682;28;20518;-51
2023/12/10 00:55:29;;;;;;;8.40;6.67;;;4.80;99.90;;;;;;5094674;28;20264;-51
2023/12/10 00:57:55;;;;;;;7.93;6.97;;;4.80;99.90;;;;;;5094696;28;20189;-51
2023/12/10 01:00:21;;;;;;;8.23;6.47;;;4.80;99.90;;;;;;5094168;28;20185;-51
2023/12/10 01:02:48;;;;;;;7.47;6.30;;;4.90;99.90;;;;;;5094089;28;20423;-51
2023/12/10 01:05:14;;;;;;;8.97;6.90;;;4.90;99.90;;;;;;5094053;28;20515;-51
2023/12/10 01:07:39;;;;;;;7.87;6.77;;;4.90;99.90;;;;;;5075961;28;20467;-51
2023/12/10 01:10:05;;;;;;;9.87;6.37;;;4.90;99.90;;;;;;5093848;28;20197;-51
2023/12/10 01:12:36;;;;;;;9.90;7.73;;;4.90;99.90;;;;;;5094348;28;20199;-51
2023/12/10 01:15:05;;;;;;;9.47;5.83;;;4.90;99.90;;;;;;5094143;28;20210;-51
2023/12/10 01:17:34;;;;;;;10.93;6.40;;;4.90;99.90;;;;;;5094028;28;20506;-51
2023/12/10 01:20:00;;;;;;;10.90;7.40;;;4.90;99.90;;;;;;5093497;28;20443;-51
2023/12/10 01:22:26;;;;;;;7.57;6.37;;;4.80;99.90;;;;;;5094077;28;20416;-50
2023/12/10 01:24:54;;;;;;;8.03;6.40;;;4.80;99.90;;;;;;5093785;28;20407;-51
2023/12/10 01:27:20;;;;;;;11.53;8.50;;;4.80;99.90;;;;;;5093681;28;20209;-51
2023/12/10 01:29:45;;;;;;;11.60;7.10;;;4.80;99.90;;;;;;5093299;28;20747;-51
2023/12/10 01:32:11;;;;;;;7.93;6.70;;;4.90;99.90;;;;;;5094114;28;20177;-51
2023/12/10 01:34:37;;;;;;;9.27;6.53;;;4.90;99.90;;;;;;5093938;28;20552;-51
2023/12/10 01:37:03;;;;;;;8.60;6.70;;;5.10;99.90;;;;;;5093337;28;20191;-51
2023/12/10 01:39:30;;;;;;;9.83;7.40;;;5.00;99.90;;;;;;5093556;28;20173;-51
2023/12/10 01:41:56;;;;;;;9.40;7.40;;;5.00;99.90;;;;;;5094027;28;20447;-51
2023/12/10 01:44:22;;;;;;;8.40;6.30;;;5.00;99.90;;;;;;5093980;28;20935;-51
2023/12/10 01:46:47;;;;;;;10.00;6.90;;;5.00;99.90;;;;;;5093333;28;20689;-51
2023/12/10 01:49:15;;;;;;;9.50;6.90;;;5.00;99.90;;;;;;5093234;28;20427;-51
2023/12/10 01:51:43;;;;;;;11.80;7.10;;;5.00;99.90;;;;;;5092823;28;20178;-51
2023/12/10 01:54:20;;;;;;;10.03;7.40;;;5.00;99.90;;;;;;5093487;28;20419;-51
2023/12/10 01:56:50;;;;;;;14.60;7.10;;;5.00;99.90;;;;;;5093620;28;20418;-51
2023/12/10 01:59:18;;;;;;;10.80;7.33;;;5.00;99.90;;;;;;5093302;28;20483;-51
2023/12/10 02:01:46;;;;;;;9.67;7.00;;;5.00;99.90;;;;;;5093542;28;20756;-51
2023/12/10 02:04:12;;;;;;;10.73;7.80;;;5.00;99.90;;;;;;5093480;28;20433;-51
2023/12/10 02:06:38;;;;;;;13.30;8.37;;;5.10;99.90;;;;;;5092885;28;20486;-52
2023/12/10 02:09:10;;;;;;;14.37;8.20;;;5.10;99.90;;;;;;5093538;28;20438;-51
2023/12/10 02:11:36;;;;;;;11.60;7.80;;;5.10;99.90;;;;;;5093719;28;20185;-51
2023/12/10 02:14:04;;;;;;;11.70;8.10;;;5.10;99.90;;;;;;5093371;28;20801;-52
2023/12/10 02:16:29;;;;;;;10.47;7.70;;;5.20;99.90;;;;;;5093483;28;20200;-52
2023/12/10 02:18:55;;;;;;;16.10;9.00;;;5.30;99.90;;;;;;5092934;28;20416;-52
2023/12/10 02:21:21;;;;;;;14.20;9.00;;;5.20;99.90;;;;;;5093265;28;20181;-51
2023/12/10 02:23:49;;;;;;;19.90;10.43;;;5.30;99.90;;;;;;5093329;28;20181;-51
2023/12/10 02:26:15;;;;;;;16.60;9.97;;;5.30;99.90;;;;;;5092912;28;20213;-52
2023/12/10 02:28:41;;;;;;;15.60;9.70;;;5.20;99.90;;;;;;5093447;28;20422;-51
2023/12/10 02:31:07;;;;;;;20.50;10.90;;;5.20;99.90;;;;;;5094852;28;20242;-52
2023/12/10 02:33:33;;;;;;;14.20;9.40;;;5.20;99.90;;;;;;5097550;28;20509;-51
2023/12/10 02:35:58;;;;;;;18.13;10.10;;;5.30;99.90;;;;;;5097153;28;20503;-52
2023/12/10 02:38:24;;;;;;;16.60;10.33;;;5.30;99.90;;;;;;5097386;28;20264;-52
2023/12/10 02:40:50;;;;;;;18.80;10.33;;;5.30;99.90;;;;;;5097224;28;20211;-52
2023/12/10 02:43:17;;;;;;;16.03;10.33;;;5.30;99.90;;;;;;5097097;28;20190;-51
2023/12/10 02:45:43;;;;;;;18.00;10.63;;;5.30;99.90;;;;;;5097148;28;20299;-52
2023/12/10 02:48:09;;;;;;;20.87;11.20;;;5.40;99.90;;;;;;5096887;28;20498;-51
2023/12/10 02:50:34;;;;;;;20.00;10.10;;;5.30;99.90;;;;;;5097137;28;20859;-52
2023/12/10 02:53:00;;;;;;;20.43;10.77;;;5.40;99.90;;;;;;5097143;28;20890;-52
2023/12/10 02:55:26;;;;;;;18.50;10.10;;;5.40;99.90;;;;;;5096820;28;20173;-52
2023/12/10 02:57:51;;;;;;;19.23;10.70;;;5.40;99.90;;;;;;5096517;28;20272;-52
2023/12/10 03:00:17;;;;;;;23.40;11.13;;;5.40;99.90;;;;;;5096675;28;20209;-51
2023/12/10 03:02:43;;;;;;;22.60;10.67;;;5.40;99.90;;;;;;5096918;28;20267;-52
2023/12/10 03:05:08;;;;;;;32.07;11.87;;;5.50;99.90;;;;;;5096502;28;20192;-51
2023/12/10 03:07:34;;;;;;;21.33;11.13;;;5.50;99.90;;;;;;5096348;28;20227;-51
2023/12/10 03:10:00;;;;;;;26.47;11.10;;;5.70;99.90;;;;;;5096199;28;20476;-51
2023/12/10 03:12:26;;;;;;;29.33;11.50;;;5.70;99.90;;;;;;5096441;28;20185;-52
2023/12/10 03:14:51;;;;;;;22.10;10.40;;;5.80;99.90;;;;;;5096291;28;20177;-52
2023/12/10 03:17:17;;;;;;;30.57;11.70;;;5.80;99.90;;;;;;5096627;28;20185;-52
2023/12/10 03:19:44;;;;;;;37.60;12.03;;;5.90;99.90;;;;;;5096253;28;20623;-52
2023/12/10 03:22:10;;;;;;;28.83;12.07;;;5.90;99.90;;;;;;5096193;28;20646;-52
2023/12/10 03:24:35;;;;;;;26.93;11.23;;;5.90;99.90;;;;;;5096306;28;20418;-52
2023/12/10 03:27:01;;;;;;;26.00;10.03;;;6.10;99.90;;;;;;5096134;28;20205;-52
2023/12/10 03:29:27;;;;;;;28.13;11.00;;;6.00;99.90;;;;;;5096221;28;20230;-52
2023/12/10 03:31:52;;;;;;;29.70;10.30;;;6.10;99.90;;;;;;5096144;28;20174;-52
2023/12/10 03:34:18;;;;;;;34.37;9.77;;;6.10;99.90;;;;;;5096192;28;20209;-52
2023/12/10 03:36:43;;;;;;;36.67;9.47;;;6.10;99.90;;;;;;5096021;28;20178;-52
2023/12/10 03:39:09;;;;;;;29.60;8.20;;;6.10;99.90;;;;;;5096142;28;20178;-52
2023/12/10 03:41:34;;;;;;;26.80;8.00;;;6.10;99.90;;;;;;5095999;28;20533;-52
2023/12/10 03:44:00;;;;;;;44.13;9.40;;;6.10;99.90;;;;;;5095155;28;20178;-52
2023/12/10 03:46:26;;;;;;;35.90;8.87;;;6.20;99.90;;;;;;5095519;28;20300;-52
2023/12/10 03:48:51;;;;;;;42.53;8.80;;;6.20;99.90;;;;;;5095665;28;20182;-52
2023/12/10 03:51:17;;;;;;;37.23;8.30;;;6.20;99.90;;;;;;5095623;28;20180;-52
2023/12/10 03:53:43;;;;;;;31.20;7.17;;;6.30;99.90;;;;;;5095926;28;20272;-52
2023/12/10 03:56:10;;;;;;;35.60;7.53;;;6.30;99.90;;;;;;5095435;28;20181;-51
2023/12/10 03:58:36;;;;;;;37.63;7.67;;;6.20;99.90;;;;;;5095372;28;20277;-52
2023/12/10 04:01:02;;;;;;;33.23;7.40;;;6.10;99.90;;;;;;5095608;28;20515;-52
2023/12/10 04:03:27;;;;;;;26.53;6.10;;;6.10;99.90;;;;;;5095419;28;20181;-52
2023/12/10 04:05:53;;;;;;;33.97;7.17;;;6.20;99.90;;;;;;5095015;28;20263;-52
2023/12/10 04:08:19;;;;;;;34.47;8.17;;;6.30;99.90;;;;;;5077270;28;20185;-52
2023/12/10 04:10:45;;;;;;;37.97;7.53;;;6.30;99.90;;;;;;5095228;28;20181;-52
2023/12/10 04:13:10;;;;;;;58.63;7.13;;;6.40;99.90;;;;;;5095105;28;20488;-51
2023/12/10 04:15:36;;;;;;;38.13;5.97;;;6.50;99.90;;;;;;5094982;28;20264;-52
2023/12/10 04:18:01;;;;;;;37.73;6.27;;;6.60;99.90;;;;;;5095281;28;20185;-52
2023/12/10 04:20:27;;;;;;;31.53;6.17;;;6.60;99.90;;;;;;5094991;28;20617;-52
2023/12/10 04:22:52;;;;;;;34.37;6.53;;;6.60;99.90;;;;;;5095423;28;20185;-52
2023/12/10 04:25:18;;;;;;;33.60;6.80;;;6.60;99.90;;;;;;5095069;28;20650;-52
2023/12/10 04:27:44;;;;;;;42.30;6.00;;;6.70;99.90;;;;;;5095050;28;20250;-52
2023/12/10 04:30:10;;;;;;;38.97;6.40;;;6.60;99.90;;;;;;5095231;28;20178;-52
2023/12/10 04:32:36;;;;;;;37.77;5.93;;;6.60;99.90;;;;;;5095331;28;20192;-51
2023/12/10 04:35:01;;;;;;;40.17;6.40;;;6.60;99.90;;;;;;5095000;28;20415;-52
2023/12/10 04:37:27;;;;;;;28.93;5.60;;;6.60;99.90;;;;;;5094911;28;20174;-52
2023/12/10 04:39:53;;;;;;;33.20;5.90;;;6.70;99.90;;;;;;5094954;28;20173;-52
2023/12/10 04:42:19;;;;;;;37.67;5.90;;;6.80;99.90;;;;;;5094745;28;20631;-52
2023/12/10 04:44:44;;;;;;;31.73;5.77;;;6.90;99.90;;;;;;5094900;28;20419;-52
2023/12/10 04:47:11;;;;;;;35.93;5.87;;;6.90;99.90;;;;;;5094637;28;20262;-52
2023/12/10 04:49:36;;;;;;;35.70;4.80;;;6.90;99.90;;;;;;5094860;28;20178;-52
2023/12/10 04:52:03;;;;;;;38.37;5.57;;;7.00;99.90;;;;;;5094580;28;20812;-52
2023/12/10 04:54:28;;;;;;;35.47;5.57;;;6.90;99.90;;;;;;5094566;28;20192;-51
2023/12/10 04:56:54;;;;;;;39.63;6.03;;;7.00;99.90;;;;;;5094617;28;20420;-52
2023/12/10 04:59:19;;;;;;;27.00;5.27;;;7.10;99.90;;;;;;5094240;28;20181;-51
2023/12/10 05:01:45;;;;;;;32.97;4.20;;;7.10;99.90;;;;;;5094435;28;20212;-52
2023/12/10 05:04:10;;;;;;;30.30;5.30;;;7.10;99.90;;;;;;5093991;28;20581;-51
2023/12/10 05:06:36;;;;;;;40.33;5.93;;;7.10;99.90;;;;;;5093807;28;20236;-51
2023/12/10 05:09:03;;;;;;;38.87;6.10;;;7.20;99.90;;;;;;5094151;28;20268;-51
2023/12/10 05:11:29;;;;;;;35.97;5.77;;;7.10;99.90;;;;;;5094049;28;20187;-51
2023/12/10 05:13:54;;;;;;;32.77;4.87;;;7.20;99.90;;;;;;5076040;28;20408;-52
2023/12/10 05:16:20;;;;;;;29.60;5.23;;;7.10;99.90;;;;;;5094297;28;20186;-52
2023/12/10 05:18:45;;;;;;;20.43;4.13;;;7.10;99.90;;;;;;5094395;28;20173;-52
2023/12/10 05:21:11;;;;;;;28.87;4.73;;;7.00;99.90;;;;;;5094010;28;20174;-52
2023/12/10 05:23:37;;;;;;;25.57;5.00;;;7.10;99.90;;;;;;5094008;28;20181;-52
2023/12/10 05:26:02;;;;;;;23.47;4.57;;;7.00;99.90;;;;;;5093663;28;20655;-52
2023/12/10 05:28:28;;;;;;;31.87;5.50;;;7.00;99.90;;;;;;5094039;28;20185;-52
2023/12/10 05:30:53;;;;;;;22.60;5.13;;;7.10;99.90;;;;;;5093772;28;20180;-52
2023/12/10 05:33:19;;;;;;;29.57;5.60;;;7.10;99.90;;;;;;5094018;28;20208;-52
2023/12/10 05:35:44;;;;;;;28.27;4.90;;;7.20;99.90;;;;;;5094166;28;20626;-52
2023/12/10 05:38:10;;;;;;;26.43;4.80;;;7.30;99.90;;;;;;5093589;28;20212;-51
2023/12/10 05:40:36;;;;;;;27.80;5.33;;;7.20;99.90;;;;;;5093961;28;20238;-52
2023/12/10 05:43:01;;;;;;;30.97;5.63;;;7.20;99.90;;;;;;5093803;28;20181;-52
2023/12/10 05:45:28;;;;;;;25.60;5.50;;;7.20;99.90;;;;;;5093757;28;20173;-52
2023/12/10 05:47:54;;;;;;;31.07;5.77;;;7.20;99.90;;;;;;5093377;28;20307;-53
2023/12/10 05:50:20;;;;;;;21.93;5.17;;;7.20;99.90;;;;;;5093841;28;20840;-52
2023/12/10 05:52:45;;;;;;;25.87;5.67;;;7.30;99.90;;;;;;5093479;28;20189;-51
2023/12/10 05:55:11;;;;;;;23.67;5.10;;;7.30;99.90;;;;;;5093620;28;20208;-52
2023/12/10 05:57:37;;;;;;;20.60;5.30;;;7.30;99.90;;;;;;5093172;28;20181;-51
2023/12/10 06:00:04;;;;;;;33.10;6.10;;;7.30;99.90;;;;;;5093733;28;20187;-52
2023/12/10 06:02:31;;;;;;;20.10;4.80;;;7.30;99.90;;;;;;5093226;28;20181;-51
2023/12/10 06:04:56;;;;;;;39.33;7.10;;;7.30;99.90;;;;;;5092482;28;20442;-51
2023/12/10 06:07:22;;;;;;;30.53;5.30;;;7.40;99.90;;;;;;5093073;28;20451;-51
2023/12/10 06:09:48;;;;;;;28.20;5.87;;;7.40;99.90;;;;;;5093627;28;20177;-52
2023/12/10 06:12:13;;;;;;;26.90;5.43;;;7.40;99.90;;;;;;5093282;28;20176;-52
2023/12/10 06:14:39;;;;;;;22.53;5.10;;;7.30;99.90;;;;;;5093395;28;20211;-51
2023/12/10 06:17:05;;;;;;;25.50;4.90;;;7.30;99.90;;;;;;5093018;28;20243;-51
2023/12/10 06:19:30;;;;;;;21.80;4.73;;;7.30;99.90;;;;;;5093475;28;20195;-51
2023/12/10 06:21:56;;;;;;;33.67;4.73;;;7.30;99.90;;;;;;5093342;28;20220;-51
2023/12/10 06:24:21;;;;;;;33.33;5.63;;;7.40;99.90;;;;;;5092943;28;20227;-51
2023/12/10 06:26:47;;;;;;;33.10;6.20;;;7.40;99.90;;;;;;5093435;28;20213;-52
2023/12/10 06:29:13;;;;;;;31.40;6.87;;;7.30;99.90;;;;;;5093214;28;20271;-52
2023/12/10 06:31:39;;;;;;;21.50;5.87;;;7.40;99.90;;;;;;5093118;28;20589;-52
2023/12/10 06:34:04;;;;;;;26.13;6.77;;;7.40;99.90;;;;;;5093009;28;20510;-52
2023/12/10 06:36:30;;;;;;;25.20;6.70;;;7.40;99.90;;;;;;5093045;28;20180;-51
2023/12/10 06:38:55;;;;;;;23.57;5.73;;;7.30;99.90;;;;;;5093342;28;20185;-52
2023/12/10 06:41:21;;;;;;;25.80;5.63;;;7.40;99.90;;;;;;5093321;28;20269;-51
2023/12/10 06:43:47;;;;;;;21.80;5.17;;;7.40;99.90;;;;;;5093221;28;20271;-52
2023/12/10 06:46:17;;;;;;;22.63;4.90;;;7.40;99.90;;;;;;5092654;28;20721;-52
2023/12/10 06:48:42;;;;;;;23.80;5.47;;;7.30;99.90;;;;;;5092825;28;20415;-51
2023/12/10 06:51:08;;;;;;;22.83;5.90;;;7.30;99.90;;;;;;5092765;28;20471;-51
2023/12/10 06:53:34;;;;;;;23.37;4.53;;;7.40;99.90;;;;;;5093071;28;20184;-51
2023/12/10 06:56:00;;;;;;;20.93;4.57;;;7.40;99.90;;;;;;5093205;28;20173;-52
2023/12/10 06:58:25;;;;;;;26.37;5.73;;;7.40;99.90;;;;;;5092914;28;20993;-52
2023/12/10 07:00:51;;;;;;;20.37;4.27;;;7.30;99.90;;;;;;5092907;28;20182;-51
2023/12/10 07:03:16;;;;;;;16.80;3.90;;;7.40;99.90;;;;;;5093075;28;20629;-51
2023/12/10 07:05:42;;;;;;;20.90;5.47;;;7.30;99.90;;;;;;5092430;28;20599;-51
2023/12/10 07:08:07;;;;;;;15.40;4.13;;;7.30;99.90;;;;;;5092455;28;20186;-51
2023/12/10 07:10:33;;;;;;;16.80;3.90;;;7.30;99.90;;;;;;5093014;28;20232;-51
2023/12/10 07:12:59;;;;;;;21.17;3.77;;;7.30;99.90;;;;;;5092954;28;20553;-51
2023/12/10 07:15:24;;;;;;;9.93;3.37;;;7.30;99.90;;;;;;5092655;28;20649;-51
2023/12/10 07:17:50;;;;;;;19.77;3.60;;;7.30;99.90;;;;;;5093598;28;20229;-51
2023/12/10 07:20:16;;;;;;;21.60;3.60;;;7.30;99.90;;;;;;5096482;28;20184;-51
2023/12/10 07:22:41;;;;;;;15.47;3.37;;;7.30;99.90;;;;;;5096177;28;20632;-50
2023/12/10 07:25:07;;;;;;;20.30;3.70;;;7.30;99.90;;;;;;5096222;28;20185;-50
2023/12/10 07:27:33;;;;;;;9.07;3.30;;;7.20;99.90;;;;;;5096210;28;20200;-51
2023/12/10 07:29:59;;;;;;;15.00;3.53;;;7.20;99.90;;;;;;5096072;28;20512;-51
2023/12/10 07:32:25;;;;;;;21.50;5.10;;;7.30;99.90;;;;;;5096284;28;20466;-51
2023/12/10 07:34:51;;;;;;;16.03;4.83;;;7.20;99.90;;;;;;5096207;28;20207;-51
2023/12/10 07:37:16;;;;;;;23.43;4.17;;;7.20;99.90;;;;;;5095962;28;20418;-51
2023/12/10 07:39:42;;;;;;;10.23;3.80;;;7.30;99.90;;;;;;5096067;28;20188;-51
2023/12/10 07:42:08;;;;;;;14.93;4.00;;;7.30;99.90;;;;;;5096320;28;20184;-51
2023/12/10 07:44:34;;;;;;;12.20;3.60;;;7.30;99.90;;;;;;5096253;28;20238;-51
2023/12/10 07:46:59;;;;;;;12.60;3.63;;;7.20;99.90;;;;;;5095755;28;20370;-51
2023/12/10 07:49:25;;;;;;;19.73;4.27;;;7.30;99.90;;;;;;5096287;28;20185;-51
2023/12/10 07:51:51;;;;;;;10.23;3.77;;;7.30;99.90;;;;;;5096079;28;20264;-51
2023/12/10 07:54:16;;;;;;;10.33;3.63;;;7.30;99.90;;;;;;5095811;28;20918;-51
2023/12/10 07:56:42;;;;;;;13.63;3.87;;;7.30;99.90;;;;;;5095660;28;20188;-51
2023/12/10 07:59:08;;;;;;;16.27;4.47;;;7.30;99.90;;;;;;5095607;28;20642;-51
2023/12/10 08:01:33;;;;;;;14.30;4.20;;;7.30;99.90;;;;;;5096076;28;20177;-51
2023/12/10 08:03:59;;;;;;;14.33;3.97;;;7.30;99.90;;;;;;5095506;28;20643;-51
2023/12/10 08:06:24;;;;;;;12.30;3.53;;;7.40;99.90;;;;;;5095352;28;20231;-51
2023/12/10 08:08:50;;;;;;;13.30;3.97;;;7.30;99.90;;;;;;5095728;28;20215;-51
2023/12/10 08:11:16;;;;;;;16.47;3.80;;;7.30;99.90;;;;;;5095620;28;20205;-51
2023/12/10 08:13:42;;;;;;;11.73;4.90;;;7.40;99.90;;;;;;5095620;28;20177;-51
2023/12/10 08:16:08;;;;;;;17.00;4.33;;;7.40;99.90;;;;;;5095438;28;20444;-51
2023/12/10 08:18:33;;;;;;;12.20;4.10;;;7.40;99.90;;;;;;5095429;28;20184;-51
2023/12/10 08:21:01;;;;;;;14.87;5.13;;;7.30;99.90;;;;;;5095423;28;20961;-51
2023/12/10 08:23:27;;;;;;;11.10;4.30;;;7.40;99.90;;;;;;5095321;28;20226;-51
2023/12/10 08:25:52;;;;;;;12.43;4.20;;;7.40;99.90;;;;;;5095229;28;20446;-51
2023/12/10 08:28:18;;;;;;;10.03;3.73;;;7.40;99.90;;;;;;5095014;28;20265;-52
2023/12/10 08:30:45;;;;;;;11.03;2.90;;;7.40;99.90;;;;;;5094969;28;20768;-52
2023/12/10 08:33:11;;;;;;;8.43;3.30;;;7.40;99.90;;;;;;5095382;28;20563;-52
2023/12/10 08:35:36;;;;;;;11.10;3.73;;;7.30;99.90;;;;;;5094806;28;20427;-52
2023/12/10 08:38:02;;;;;;;4.77;2.77;;;7.30;99.90;;;;;;5095023;28;20189;-52
2023/12/10 08:40:27;;;;;;;8.17;3.00;;;7.40;99.90;;;;;;5094806;28;20184;-51
2023/12/10 08:42:53;;;;;;;7.93;2.70;;;7.40;99.90;;;;;;5094685;28;20203;-52
2023/12/10 08:45:19;;;;;;;5.43;2.60;;;7.30;99.90;;;;;;5095027;28;20512;-52
2023/12/10 08:47:44;;;;;;;12.50;2.63;;;7.40;99.90;;;;;;5094586;28;20240;-51
2023/12/10 08:50:10;;;;;;;7.40;3.20;;;7.40;99.90;;;;;;5076392;28;20264;-52
2023/12/10 08:52:36;;;;;;;14.27;2.77;;;7.40;99.90;;;;;;5094807;28;20189;-52
2023/12/10 08:55:01;;;;;;;9.40;2.63;;;7.40;99.90;;;;;;5094628;28;20266;-52
2023/12/10 08:57:27;;;;;;;7.07;2.50;;;7.40;99.90;;;;;;5094416;28;20188;-52
2023/12/10 08:59:55;;;;;;;6.53;2.80;;;7.40;99.90;;;;;;5094424;28;20181;-52
2023/12/10 09:02:20;;;;;;;6.47;2.80;;;7.40;99.90;;;;;;5094605;28;20184;-52
2023/12/10 09:04:46;;;;;;;8.90;2.73;;;7.40;99.90;;;;;;5094587;28;20412;-51
2023/12/10 09:07:12;;;;;;;9.80;2.73;;;7.40;99.90;;;;;;5094058;28;20259;-51
2023/12/10 09:09:37;;;;;;;8.17;2.60;;;7.40;99.90;;;;;;5094036;28;20184;-51
2023/12/10 09:12:03;;;;;;;8.90;2.90;;;7.40;99.90;;;;;;5094015;28;20177;-51
2023/12/10 09:14:29;;;;;;;10.93;2.93;;;7.40;99.90;;;;;;5094356;28;20327;-52
2023/12/10 09:16:55;;;;;;;8.23;2.53;;;7.40;99.90;;;;;;5094223;28;20188;-51
2023/12/10 09:19:21;;;;;;;13.80;3.50;;;7.40;99.90;;;;;;5094419;28;20198;-51
2023/12/10 09:21:47;;;;;;;11.90;2.57;;;7.50;99.90;;;;;;5093778;28;20419;-51
2023/12/10 09:24:13;;;;;;;8.33;3.40;;;7.50;99.90;;;;;;5094167;28;20259;-51
2023/12/10 09:26:39;;;;;;;8.17;3.00;;;7.50;99.90;;;;;;5093861;28;20819;-51
2023/12/10 09:29:05;;;;;;;8.37;2.80;;;7.50;99.90;;;;;;5094042;28;20297;-52
2023/12/10 09:31:30;;;;;;;10.00;3.10;;;7.60;99.90;;;;;;5093965;28;20991;-51
2023/12/10 09:33:56;;;;;;;6.47;2.70;;;7.60;99.90;;;;;;5093967;28;20185;-51
2023/12/10 09:36:21;;;;;;;7.23;3.00;;;7.60;99.90;;;;;;5093807;28;20203;-51
2023/12/10 09:38:47;;;;;;;9.20;2.67;;;7.60;99.90;;;;;;5093581;28;20178;-52
2023/12/10 09:41:13;;;;;;;5.40;2.43;;;7.60;99.90;;;;;;5092714;28;20181;-52
2023/12/10 09:43:39;;;;;;;13.27;2.47;;;7.60;99.90;;;;;;5107957;28;20490;-52
2023/12/10 09:46:06;;;;;;;5.93;2.47;;;7.70;99.90;;;;;;5114227;28;20176;-51
2023/12/10 09:48:32;;;;;;;8.07;2.33;;;7.70;99.90;;;;;;5114359;28;20649;-52
2023/12/10 09:50:57;;;;;;;12.87;2.37;;;7.70;99.90;;;;;;5113990;28;20415;-52
2023/12/10 09:53:23;;;;;;;12.40;2.63;;;7.70;99.90;;;;;;5114127;28;20230;-51
2023/12/10 09:55:49;;;;;;;3.33;2.13;;;7.70;99.90;;;;;;5113979;28;20175;-52
2023/12/10 09:58:14;;;;;;;11.93;2.97;;;7.70;99.90;;;;;;5114145;28;20180;-51
2023/12/10 10:00:40;;;;;;;5.03;2.50;;;7.70;99.90;;;;;;5113862;28;20279;-51
2023/12/10 10:03:06;;;;;;;6.87;3.00;;;7.80;99.90;;;;;;5113980;28;20180;-52
2023/12/10 10:05:33;;;;;;;6.17;2.50;;;7.90;99.90;;;;;;5113461;28;20233;-51
2023/12/10 10:07:59;;;;;;;8.77;2.23;;;7.90;99.90;;;;;;5114308;28;20208;-51
2023/12/10 10:10:25;;;;;;;5.30;2.40;;;7.90;99.90;;;;;;5113862;28;20406;-52
2023/12/10 10:12:55;;;;;;;6.70;2.37;;;7.80;99.90;;;;;;5113678;28;20454;-52
2023/12/10 10:15:28;;;;;;;4.97;2.50;;;7.90;99.90;;;;;;5113688;28;20467;-51
2023/12/10 10:17:55;;;;;;;7.17;2.77;;;7.80;99.90;;;;;;5113610;28;20946;-52
2023/12/10 10:20:22;;;;;;;6.20;3.60;;;7.90;99.90;;;;;;5113644;28;20429;-52
2023/12/10 10:22:48;;;;;;;6.53;3.07;;;7.80;99.90;;;;;;5113500;28;20426;-52
2023/12/10 10:25:14;;;;;;;11.03;2.40;;;7.90;99.90;;;;;;5113553;28;20464;-52
2023/12/10 10:27:40;;;;;;;6.63;2.70;;;7.90;99.90;;;;;;5113350;28;20455;-51
2023/12/10 10:30:06;;;;;;;3.10;2.33;;;7.90;99.90;;;;;;5113688;28;20661;-52
2023/12/10 10:32:33;;;;;;;7.43;3.20;;;7.90;99.90;;;;;;5113524;28;20258;-52
2023/12/10 10:35:04;;;;;;;9.03;2.53;;;7.90;99.90;;;;;;5113514;28;20453;-52
2023/12/10 10:37:29;;;;;;;9.50;3.20;;;7.90;99.90;;;;;;5113619;28;20412;-52
2023/12/10 10:39:56;;;;;;;4.40;2.37;;;7.90;99.90;;;;;;5113333;28;20414;-51
2023/12/10 10:42:22;;;;;;;9.30;2.73;;;8.00;99.90;;;;;;5113762;28;20173;-52
2023/12/10 10:44:48;;;;;;;5.27;2.70;;;8.00;99.90;;;;;;5113407;28;20406;-51
2023/12/10 10:47:18;;;;;;;5.83;2.87;;;8.00;99.90;;;;;;5113036;28;20507;-52
2023/12/10 10:49:47;;;;;;;3.90;2.33;;;8.00;99.90;;;;;;5113265;28;20418;-52
2023/12/10 10:52:21;;;;;;;3.73;2.40;;;8.00;99.90;;;;;;5114850;28;20953;-52
2023/12/10 10:54:48;;;;;;;4.40;2.97;;;8.00;99.90;;;;;;5117617;28;20417;-51
2023/12/10 10:57:27;;;;;;;6.10;3.23;;;8.00;99.90;;;;;;5117447;28;20418;-51
2023/12/10 10:59:52;;;;;;;2.83;2.60;;;8.10;99.90;;;;;;5117355;28;20797;-51
2023/12/10 11:02:19;;;;;;;8.13;3.00;;;8.10;99.90;;;;;;5117191;28;20457;-51
2023/12/10 11:04:47;;;;;;;9.30;2.80;;;8.10;99.90;;;;;;5117175;28;20184;-51
2023/12/10 11:07:15;;;;;;;3.87;3.10;;;8.10;99.90;;;;;;5117239;28;20478;-51
2023/12/10 11:09:56;;;;;;;4.30;3.27;;;8.10;99.90;;;;;;5116957;28;21021;-51
2023/12/10 11:12:44;;;;;;;5.77;3.03;;;8.10;99.90;;;;;;5116931;28;20813;-51
2023/12/10 11:15:30;;;;;;;5.33;3.47;;;8.10;99.90;;;;;;5117317;28;20866;-51
2023/12/10 11:17:57;;;;;;;7.43;3.97;;;8.10;99.90;;;;;;5116523;28;20836;-51
2023/12/10 11:20:34;;;;;;;4.70;3.50;;;8.10;99.90;;;;;;5116827;28;20908;-51
2023/12/10 11:23:05;;;;;;;5.43;3.50;;;8.20;99.90;;;;;;5116778;28;20410;-51
2023/12/10 11:25:31;;;;;;;5.57;3.60;;;8.30;99.90;;;;;;5116963;28;20442;-50
2023/12/10 11:27:58;;;;;;;5.60;3.23;;;8.40;99.90;;;;;;5116541;28;20473;-50
2023/12/10 11:30:25;;;;;;;6.23;3.00;;;8.40;99.90;;;;;;5116694;28;20460;-50
2023/12/10 11:32:50;;;;;;;3.40;3.03;;;8.40;99.90;;;;;;5116272;28;20468;-51
2023/12/10 11:35:17;;;;;;;7.40;3.40;;;8.50;99.90;;;;;;5116891;28;20411;-51
2023/12/10 11:37:43;;;;;;;6.20;3.27;;;8.50;99.90;;;;;;5116525;28;20180;-51
2023/12/10 11:40:09;;;;;;;10.50;3.40;;;8.50;99.90;;;;;;5116621;28;20422;-51
2023/12/10 11:42:35;;;;;;;8.80;3.90;;;8.50;99.90;;;;;;5116491;28;20835;-51
2023/12/10 11:45:02;;;;;;;10.17;3.77;;;8.60;99.90;;;;;;5116006;28;20514;-51
2023/12/10 11:47:28;;;;;;;5.93;3.20;;;8.60;99.90;;;;;;5116220;28;20213;-51
2023/12/10 11:49:55;;;;;;;9.20;3.33;;;8.60;99.90;;;;;;5116300;28;20421;-51
2023/12/10 11:52:21;;;;;;;8.07;3.30;;;8.50;99.90;;;;;;5116556;28;20415;-50
2023/12/10 11:54:47;;;;;;;7.53;3.23;;;8.60;99.90;;;;;;5116036;28;20418;-50
2023/12/10 11:57:12;;;;;;;9.07;3.30;;;8.60;99.90;;;;;;5115833;28;20413;-50
2023/12/10 11:59:38;;;;;;;4.50;3.10;;;8.50;99.90;;;;;;5115864;28;20179;-50
2023/12/10 12:02:05;;;;;;;10.50;3.93;;;8.60;99.90;;;;;;5116349;28;20180;-50
2023/12/10 12:04:33;;;;;;;10.70;4.00;;;8.60;99.90;;;;;;5115310;28;20192;-51
2023/12/10 12:06:58;;;;;;;15.17;3.77;;;8.60;99.90;;;;;;5115998;28;20580;-50
2023/12/10 12:09:25;;;;;;;7.83;3.83;;;8.50;99.90;;;;;;5116006;28;20547;-51
2023/12/10 12:11:51;;;;;;;13.67;4.43;;;8.50;99.90;;;;;;5115418;28;20200;-50
2023/12/10 12:14:18;;;;;;;17.60;4.43;;;8.50;99.90;;;;;;5114640;28;20876;-50
2023/12/10 12:16:45;;;;;;;13.67;4.17;;;8.50;99.90;;;;;;5114954;28;20302;-51
2023/12/10 12:19:23;;;;;;;7.27;3.33;;;8.50;99.90;;;;;;5115720;28;20419;-50
2023/12/10 12:21:49;;;;;;;11.03;3.50;;;8.50;99.90;;;;;;5115657;28;20402;-50
2023/12/10 12:24:15;;;;;;;10.70;3.20;;;8.50;99.90;;;;;;5115854;28;20406;-50
2023/12/10 12:26:40;;;;;;;9.83;2.50;;;8.50;99.90;;;;;;5115592;28;20488;-50
2023/12/10 12:29:06;;;;;;;9.30;2.60;;;8.50;99.90;;;;;;5115474;28;20192;-53
2023/12/10 12:31:32;;;;;;;6.20;2.33;;;8.50;99.90;;;;;;5115468;28;20267;-51
2023/12/10 12:33:57;;;;;;;10.87;2.57;;;8.50;99.90;;;;;;5115151;28;20181;-51
2023/12/10 12:36:23;;;;;;;11.40;2.50;;;8.50;99.90;;;;;;5115340;28;20181;-50
2023/12/10 12:38:48;;;;;;;11.13;2.93;;;8.50;99.90;;;;;;5115317;28;20183;-51
2023/12/10 12:41:14;;;;;;;8.00;2.80;;;8.50;99.90;;;;;;5114518;28;20177;-50
2023/12/10 12:43:40;;;;;;;12.00;2.70;;;8.50;99.90;;;;;;5115208;28;20200;-51
2023/12/10 12:46:05;;;;;;;17.03;3.17;;;8.50;99.90;;;;;;5115355;28;20181;-51